createdAt,value
2023-03-21T00:00:35.808Z,16.37
2023-03-21T00:01:38.481Z,15.88
2023-03-21T00:02:41.334Z,18.12
2023-03-21T00:03:44.182Z,16.72
2023-03-21T00:04:52.311Z,18.98
2023-03-21T00:05:51.368Z,16.21
2023-03-21T00:06:54.012Z,15.89
2023-03-21T00:07:56.649Z,18.76
2023-03-21T00:08:59.239Z,16.44
2023-03-21T00:10:14.334Z,14.40
2023-03-21T00:11:06.504Z,16.17
2023-03-21T00:12:09.377Z,19.51
2023-03-21T00:13:12.250Z,15.14
2023-03-21T00:14:14.923Z,13.94
2023-03-21T00:15:20.594Z,14.52
2023-03-21T00:16:29.829Z,15.68
2023-03-21T00:17:26.717Z,18.79
2023-03-21T00:18:29.291Z,21.05
2023-03-21T00:19:32.261Z,16.62
2023-03-21T00:20:35.139Z,13.22
2023-03-21T00:21:49.160Z,16.12
2023-03-21T00:22:41.935Z,19.04
2023-03-21T00:23:44.626Z,20.37
2023-03-21T00:24:47.248Z,19.26
2023-03-21T00:25:50.337Z,17.75
2023-03-21T00:26:53.737Z,20.10
2023-03-21T00:28:07.463Z,16.39
2023-03-21T00:29:00.699Z,18.07
2023-03-21T00:30:03.374Z,18.73
2023-03-21T00:31:06.337Z,17.63
2023-03-21T00:32:08.806Z,17.28
2023-03-21T00:33:21.973Z,19.59
2023-03-21T00:34:17.648Z,17.35
2023-03-21T00:35:53.425Z,15.31
2023-03-21T00:36:24.440Z,18.26
2023-03-21T00:37:27.068Z,15.94
2023-03-21T00:38:29.847Z,15.25
2023-03-21T00:39:32.519Z,16.62
2023-03-21T00:40:40.843Z,14.12
2023-03-21T00:41:42.961Z,16.80
2023-03-21T00:42:43.901Z,14.46
2023-03-21T00:43:46.698Z,12.35
2023-03-21T00:44:49.649Z,15.71
2023-03-21T00:45:52.636Z,18.73
2023-03-21T00:47:06.453Z,18.88
2023-03-21T00:48:00.128Z,14.37
2023-03-21T00:49:02.893Z,16.61
2023-03-21T00:50:05.767Z,19.21
2023-03-21T00:51:08.537Z,13.58
2023-03-21T00:52:27.589Z,14.96
2023-03-21T00:53:15.415Z,16.69
2023-03-21T00:54:18.082Z,15.95
2023-03-21T00:55:20.545Z,13.83
2023-03-21T00:56:23.648Z,14.20
2023-03-21T00:57:37.936Z,14.73
2023-03-21T00:58:31.219Z,15.11
2023-03-21T00:59:34.508Z,15.03
2023-03-21T01:00:37.200Z,18.07
2023-03-21T01:01:39.937Z,20.99
2023-03-21T01:02:43.412Z,16.34
2023-03-21T01:03:46.205Z,14.16
2023-03-21T01:04:48.876Z,13.25
2023-03-21T01:05:51.440Z,15.02
2023-03-21T01:06:54.020Z,13.68
2023-03-21T01:07:58.830Z,13.55
2023-03-21T01:09:01.813Z,16.87
2023-03-21T01:10:04.394Z,17.38
2023-03-21T01:11:07.044Z,15.71
2023-03-21T01:12:09.613Z,17.78
2023-03-21T01:13:12.491Z,16.53
2023-03-21T01:14:22.429Z,15.85
2023-03-21T01:15:19.776Z,17.31
2023-03-21T01:16:22.615Z,19.30
2023-03-21T01:17:25.431Z,16.56
2023-03-21T01:18:28.401Z,16.30
2023-03-21T01:19:48.331Z,16.88
2023-03-21T01:20:35.582Z,14.62
2023-03-21T01:21:38.695Z,17.13
2023-03-21T01:22:41.333Z,16.01
2023-03-21T01:23:43.994Z,14.37
2023-03-21T01:24:55.094Z,16.17
2023-03-21T01:25:51.184Z,14.99
2023-03-21T01:26:53.851Z,16.58
2023-03-21T01:27:56.620Z,15.38
2023-03-21T01:28:59.392Z,15.92
2023-03-21T01:30:02.596Z,14.81
2023-03-21T01:31:05.604Z,17.31
2023-03-21T01:32:08.536Z,16.66
2023-03-21T01:33:11.199Z,13.16
2023-03-21T01:34:14.012Z,15.88
2023-03-21T01:35:16.640Z,16.64
2023-03-21T01:36:22.676Z,12.92
2023-03-21T01:37:23.727Z,14.98
2023-03-21T01:38:26.699Z,16.42
2023-03-21T01:39:29.782Z,16.99
2023-03-21T01:40:32.346Z,16.62
2023-03-21T01:41:44.431Z,17.64
2023-03-21T01:42:39.939Z,18.26
2023-03-21T01:43:42.506Z,15.12
2023-03-21T01:44:45.504Z,17.96
2023-03-21T01:45:48.557Z,17.38
2023-03-21T01:47:09.273Z,16.37
2023-03-21T01:47:55.691Z,16.15
2023-03-21T01:48:59.331Z,17.09
2023-03-21T01:50:02.322Z,15.84
2023-03-21T01:51:05.087Z,14.63
2023-03-21T01:52:14.022Z,17.17
2023-03-21T01:53:12.071Z,16.04
2023-03-21T01:54:14.939Z,17.58
2023-03-21T01:55:18.046Z,15.28
2023-03-21T01:56:20.991Z,14.88
2023-03-21T01:57:25.813Z,15.78
2023-03-21T01:58:28.282Z,16.45
2023-03-21T01:59:31.055Z,16.86
2023-03-21T02:00:34.316Z,19.62
2023-03-21T02:01:37.111Z,20.60
2023-03-21T02:02:39.981Z,14.72
2023-03-21T02:03:42.831Z,18.03
2023-03-21T02:04:45.423Z,17.80
2023-03-21T02:05:47.996Z,17.35
2023-03-21T02:06:50.771Z,16.07
2023-03-21T02:07:53.552Z,15.67
2023-03-21T02:08:56.109Z,14.38
2023-03-21T02:09:58.669Z,15.64
2023-03-21T02:11:01.201Z,18.75
2023-03-21T02:12:04.114Z,18.42
2023-03-21T02:13:06.992Z,18.58
2023-03-21T02:14:11.511Z,19.45
2023-03-21T02:15:14.486Z,16.48
2023-03-21T02:16:17.633Z,15.39
2023-03-21T02:17:20.456Z,16.55
2023-03-21T02:18:23.305Z,13.35
2023-03-21T02:19:34.151Z,14.77
2023-03-21T02:20:30.390Z,15.09
2023-03-21T02:21:33.361Z,12.92
2023-03-21T02:22:36.138Z,12.48
2023-03-21T02:23:39.020Z,13.65
2023-03-21T02:24:46.254Z,16.15
2023-03-21T02:25:46.405Z,15.59
2023-03-21T02:26:57.985Z,13.59
2023-03-21T02:27:53.687Z,14.90
2023-03-21T02:28:56.664Z,13.35
2023-03-21T02:29:59.542Z,16.15
2023-03-21T02:31:02.469Z,12.03
2023-03-21T02:32:16.498Z,11.80
2023-03-21T02:33:10.013Z,16.10
2023-03-21T02:34:13.104Z,15.16
2023-03-21T02:35:15.959Z,14.84
2023-03-21T02:36:18.896Z,11.58
2023-03-21T02:37:28.934Z,15.02
2023-03-21T02:38:26.447Z,16.12
2023-03-21T02:39:29.206Z,20.44
2023-03-21T02:40:32.080Z,14.95
2023-03-21T02:41:40.144Z,14.45
2023-03-21T02:42:39.379Z,16.10
2023-03-21T02:43:42.360Z,14.34
2023-03-21T02:44:45.114Z,15.50
2023-03-21T02:45:48.032Z,15.59
2023-03-21T02:46:59.739Z,16.08
2023-03-21T02:47:55.610Z,14.08
2023-03-21T02:48:58.285Z,12.03
2023-03-21T02:50:01.117Z,12.52
2023-03-21T02:51:03.905Z,14.91
2023-03-21T02:52:15.672Z,14.86
2023-03-21T02:53:10.764Z,14.16
2023-03-21T02:54:42.057Z,17.63
2023-03-21T02:55:17.746Z,16.77
2023-03-21T02:56:20.419Z,17.89
2023-03-21T02:57:25.508Z,18.56
2023-03-21T02:58:28.214Z,17.35
2023-03-21T02:59:30.777Z,17.57
2023-03-21T03:00:33.426Z,13.67
2023-03-21T03:01:36.204Z,17.33
2023-03-21T03:02:38.891Z,15.56
2023-03-21T03:03:41.667Z,16.55
2023-03-21T03:04:44.365Z,17.28
2023-03-21T03:05:47.420Z,14.88
2023-03-21T03:06:50.291Z,14.29
2023-03-21T03:07:53.165Z,14.67
2023-03-21T03:09:02.251Z,15.00
2023-03-21T03:10:01.787Z,15.03
2023-03-21T03:11:05.269Z,15.70
2023-03-21T03:12:08.367Z,18.00
2023-03-21T03:13:11.127Z,15.55
2023-03-21T03:14:38.507Z,14.95
2023-03-21T03:15:19.130Z,12.90
2023-03-21T03:16:21.908Z,17.43
2023-03-21T03:17:26.295Z,15.58
2023-03-21T03:18:29.190Z,15.04
2023-03-21T03:19:36.663Z,13.18
2023-03-21T03:20:37.062Z,14.13
2023-03-21T03:21:39.968Z,14.27
2023-03-21T03:22:42.940Z,15.34
2023-03-21T03:23:45.714Z,16.13
2023-03-21T03:24:49.296Z,13.87
2023-03-21T03:25:52.175Z,12.55
2023-03-21T03:26:54.852Z,16.47
2023-03-21T03:27:57.729Z,14.42
2023-03-21T03:29:00.496Z,16.36
2023-03-21T03:30:03.565Z,14.47
2023-03-21T03:31:09.519Z,15.57
2023-03-21T03:32:10.551Z,13.57
2023-03-21T03:33:13.314Z,13.75
2023-03-21T03:34:15.911Z,17.58
2023-03-21T03:35:19.166Z,15.74
2023-03-21T03:36:31.650Z,14.67
2023-03-21T03:37:26.046Z,15.94
2023-03-21T03:38:28.713Z,13.93
2023-03-21T03:39:31.381Z,11.32
2023-03-21T03:40:35.862Z,13.35
2023-03-21T03:42:03.012Z,15.60
2023-03-21T03:42:42.466Z,15.91
2023-03-21T03:43:45.132Z,15.40
2023-03-21T03:44:47.700Z,14.72
2023-03-21T03:45:50.680Z,15.76
2023-03-21T03:46:53.708Z,18.19
2023-03-21T03:47:57.668Z,13.71
2023-03-21T03:49:00.338Z,15.87
2023-03-21T03:50:02.995Z,17.45
2023-03-21T03:51:05.971Z,20.20
2023-03-21T03:52:08.540Z,17.14
2023-03-21T03:53:18.132Z,13.95
2023-03-21T03:54:15.311Z,15.35
2023-03-21T03:55:18.128Z,15.82
2023-03-21T03:56:21.072Z,13.80
2023-03-21T03:57:23.628Z,18.35
2023-03-21T03:58:39.441Z,15.45
2023-03-21T03:59:30.508Z,17.09
2023-03-21T04:00:33.386Z,15.50
2023-03-21T04:01:36.270Z,13.96
2023-03-21T04:02:39.084Z,13.06
2023-03-21T04:03:49.841Z,14.46
2023-03-21T04:04:46.247Z,16.23
2023-03-21T04:05:49.097Z,18.74
2023-03-21T04:06:52.168Z,15.45
2023-03-21T04:07:54.944Z,16.62
2023-03-21T04:08:58.113Z,18.93
2023-03-21T04:10:01.002Z,16.27
2023-03-21T04:11:04.080Z,18.03
2023-03-21T04:12:07.156Z,13.00
2023-03-21T04:13:10.146Z,14.27
2023-03-21T04:14:13.028Z,13.72
2023-03-21T04:15:15.992Z,15.62
2023-03-21T04:16:19.124Z,14.56
2023-03-21T04:17:22.454Z,18.30
2023-03-21T04:18:25.328Z,17.54
2023-03-21T04:19:28.206Z,16.07
2023-03-21T04:20:43.209Z,16.09
2023-03-21T04:21:35.797Z,18.50
2023-03-21T04:22:38.671Z,14.96
2023-03-21T04:23:41.474Z,17.42
2023-03-21T04:24:44.213Z,18.07
2023-03-21T04:25:55.901Z,16.82
2023-03-21T04:26:51.495Z,16.27
2023-03-21T04:27:54.503Z,16.60
2023-03-21T04:28:57.365Z,17.94
2023-03-21T04:30:00.144Z,17.84
2023-03-21T04:31:08.893Z,17.82
2023-03-21T04:32:07.364Z,15.11
2023-03-21T04:33:10.590Z,15.74
2023-03-21T04:34:13.464Z,17.50
2023-03-21T04:35:16.247Z,14.44
2023-03-21T04:36:19.124Z,16.45
2023-03-21T04:37:23.216Z,12.58
2023-03-21T04:38:25.785Z,16.06
2023-03-21T04:39:28.452Z,15.06
2023-03-21T04:40:31.015Z,19.47
2023-03-21T04:41:33.800Z,18.23
2023-03-21T04:42:36.559Z,16.84
2023-03-21T04:43:39.232Z,18.91
2023-03-21T04:44:41.899Z,16.34
2023-03-21T04:45:44.716Z,13.05
2023-03-21T04:46:47.476Z,14.40
2023-03-21T04:47:50.519Z,17.99
2023-03-21T04:48:53.809Z,14.94
2023-03-21T04:49:57.195Z,17.93
2023-03-21T04:51:00.276Z,16.19
2023-03-21T04:52:03.353Z,15.91
2023-03-21T04:53:06.229Z,15.24
2023-03-21T04:55:10.698Z,14.27
2023-03-21T04:56:13.629Z,20.69
2023-03-21T04:57:16.501Z,14.76
2023-03-21T04:58:19.372Z,15.90
2023-03-21T04:59:22.550Z,17.35
2023-03-21T05:00:25.641Z,15.07
2023-03-21T05:01:28.485Z,17.42
2023-03-21T05:02:31.401Z,18.92
2023-03-21T05:03:34.321Z,14.02
2023-03-21T05:04:37.538Z,14.90
2023-03-21T05:05:40.524Z,17.35
2023-03-21T05:06:43.391Z,15.05
2023-03-21T05:07:46.381Z,17.63
2023-03-21T05:08:49.156Z,15.18
2023-03-21T05:09:52.631Z,14.35
2023-03-21T05:10:55.814Z,16.02
2023-03-21T05:11:59.985Z,14.28
2023-03-21T05:13:02.588Z,13.11
2023-03-21T05:14:05.564Z,16.05
2023-03-21T05:15:08.951Z,16.44
2023-03-21T05:16:12.029Z,17.61
2023-03-21T05:17:15.021Z,15.26
2023-03-21T05:18:17.895Z,13.36
2023-03-21T05:19:20.855Z,16.78
2023-03-21T05:20:23.835Z,14.95
2023-03-21T05:21:27.126Z,15.62
2023-03-21T05:22:29.789Z,12.98
2023-03-21T05:23:36.047Z,18.56
2023-03-21T05:24:39.644Z,17.04
2023-03-21T05:25:42.301Z,17.25
2023-03-21T05:26:45.177Z,14.70
2023-03-21T05:27:48.063Z,15.48
2023-03-21T05:28:51.229Z,17.81
2023-03-21T05:29:53.906Z,14.33
2023-03-21T05:30:58.837Z,16.27
2023-03-21T05:32:01.608Z,15.18
2023-03-21T05:33:04.886Z,16.75
2023-03-21T05:34:07.979Z,14.77
2023-03-21T05:35:10.837Z,15.53
2023-03-21T05:36:13.438Z,17.55
2023-03-21T05:37:16.456Z,16.88
2023-03-21T05:38:19.417Z,14.92
2023-03-21T05:39:22.230Z,14.33
2023-03-21T05:40:25.209Z,15.53
2023-03-21T05:41:28.394Z,15.13
2023-03-21T05:42:31.077Z,12.33
2023-03-21T05:43:33.641Z,15.67
2023-03-21T05:44:36.401Z,18.96
2023-03-21T05:45:39.296Z,14.59
2023-03-21T05:46:42.563Z,13.71
2023-03-21T05:47:45.492Z,15.56
2023-03-21T05:48:48.438Z,13.68
2023-03-21T05:49:51.311Z,13.55
2023-03-21T05:50:54.170Z,15.31
2023-03-21T05:51:57.342Z,16.11
2023-03-21T05:53:00.214Z,19.08
2023-03-21T05:54:03.094Z,13.77
2023-03-21T05:55:05.964Z,15.46
2023-03-21T05:56:09.160Z,14.42
2023-03-21T05:57:12.754Z,14.42
2023-03-21T05:58:15.417Z,11.48
2023-03-21T05:59:18.495Z,14.63
2023-03-21T06:00:21.365Z,12.18
2023-03-21T06:01:24.352Z,11.98
2023-03-21T06:02:27.652Z,13.56
2023-03-21T06:03:30.595Z,13.68
2023-03-21T06:04:34.421Z,16.50
2023-03-21T06:05:40.654Z,14.82
2023-03-21T06:06:43.531Z,14.76
2023-03-21T06:07:46.716Z,15.50
2023-03-21T06:08:49.648Z,14.08
2023-03-21T06:09:53.078Z,15.44
2023-03-21T06:10:55.856Z,16.12
2023-03-21T06:11:58.831Z,17.71
2023-03-21T06:13:01.804Z,18.62
2023-03-21T06:14:04.693Z,13.12
2023-03-21T06:15:07.755Z,11.65
2023-03-21T06:16:10.975Z,13.08
2023-03-21T06:17:14.133Z,12.99
2023-03-21T06:18:17.106Z,12.80
2023-03-21T06:19:19.876Z,13.66
2023-03-21T06:20:22.538Z,14.23
2023-03-21T06:21:26.875Z,12.67
2023-03-21T06:22:29.519Z,15.74
2023-03-21T06:23:32.294Z,14.07
2023-03-21T06:24:36.863Z,13.88
2023-03-21T06:25:39.721Z,16.19
2023-03-21T06:26:42.559Z,15.91
2023-03-21T06:27:45.225Z,11.79
2023-03-21T06:28:48.096Z,15.32
2023-03-21T06:29:50.864Z,13.68
2023-03-21T06:30:53.537Z,11.58
2023-03-21T06:31:56.312Z,16.33
2023-03-21T06:32:59.081Z,12.18
2023-03-21T06:34:01.871Z,13.29
2023-03-21T06:35:04.830Z,12.44
2023-03-21T06:36:08.055Z,13.62
2023-03-21T06:37:11.091Z,12.52
2023-03-21T06:38:13.761Z,14.85
2023-03-21T06:39:16.749Z,14.76
2023-03-21T06:40:19.835Z,12.48
2023-03-21T06:41:23.209Z,12.31
2023-03-21T06:42:25.978Z,15.61
2023-03-21T06:43:28.848Z,13.06
2023-03-21T06:44:31.940Z,11.12
2023-03-21T06:45:36.025Z,15.21
2023-03-21T06:46:39.126Z,13.34
2023-03-21T06:47:42.134Z,13.19
2023-03-21T06:48:45.583Z,13.71
2023-03-21T06:49:48.762Z,13.70
2023-03-21T06:50:54.306Z,12.36
2023-03-21T06:51:57.069Z,12.71
2023-03-21T06:53:00.559Z,12.07
2023-03-21T06:54:03.337Z,13.84
2023-03-21T06:55:06.413Z,16.22
2023-03-21T06:56:08.982Z,10.53
2023-03-21T06:57:11.850Z,14.02
2023-03-21T06:58:14.728Z,14.91
2023-03-21T06:59:17.609Z,13.32
2023-03-21T07:00:20.892Z,11.48
2023-03-21T07:01:23.863Z,12.82
2023-03-21T07:02:26.875Z,12.89
2023-03-21T07:03:32.397Z,10.89
2023-03-21T07:04:35.874Z,13.08
2023-03-21T07:05:40.180Z,13.41
2023-03-21T07:06:43.482Z,10.85
2023-03-21T07:07:46.335Z,10.63
2023-03-21T07:08:49.897Z,11.22
2023-03-21T07:09:52.905Z,12.68
2023-03-21T07:11:01.342Z,11.82
2023-03-21T07:12:04.281Z,11.79
2023-03-21T07:13:07.261Z,10.27
2023-03-21T07:14:10.546Z,10.32
2023-03-21T07:15:13.730Z,14.05
2023-03-21T07:16:17.401Z,13.17
2023-03-21T07:17:20.709Z,10.19
2023-03-21T07:18:23.689Z,12.19
2023-03-21T07:19:26.593Z,10.90
2023-03-21T07:20:29.649Z,14.50
2023-03-21T07:21:32.824Z,12.09
2023-03-21T07:22:36.244Z,16.29
2023-03-21T07:23:39.285Z,10.68
2023-03-21T07:24:42.991Z,13.35
2023-03-21T07:25:49.160Z,11.60
2023-03-21T07:26:52.555Z,11.78
2023-03-21T07:27:55.497Z,12.47
2023-03-21T07:28:58.678Z,15.26
2023-03-21T07:30:01.353Z,11.84
2023-03-21T07:31:04.255Z,13.93
2023-03-21T07:32:07.430Z,12.64
2023-03-21T07:33:10.199Z,11.10
2023-03-21T07:34:13.377Z,12.59
2023-03-21T07:35:16.459Z,12.58
2023-03-21T07:36:19.262Z,16.25
2023-03-21T07:37:23.212Z,16.79
2023-03-21T07:38:26.195Z,16.46
2023-03-21T07:39:28.854Z,14.52
2023-03-21T07:40:31.527Z,15.12
2023-03-21T07:41:34.404Z,16.51
2023-03-21T07:42:37.285Z,14.68
2023-03-21T07:43:39.756Z,13.97
2023-03-21T07:44:42.426Z,12.98
2023-03-21T07:45:45.190Z,12.15
2023-03-21T07:46:48.116Z,14.44
2023-03-21T07:47:51.216Z,13.37
2023-03-21T07:48:54.212Z,13.98
2023-03-21T07:49:57.189Z,10.72
2023-03-21T07:51:00.101Z,10.46
2023-03-21T07:52:04.671Z,15.48
2023-03-21T07:53:06.966Z,16.03
2023-03-21T07:54:09.720Z,14.54
2023-03-21T07:55:12.804Z,11.66
2023-03-21T07:56:16.122Z,13.33
2023-03-21T07:57:19.172Z,12.32
2023-03-21T07:58:22.050Z,12.65
2023-03-21T07:59:24.706Z,14.29
2023-03-21T08:00:27.482Z,12.42
2023-03-21T08:01:30.152Z,13.15
2023-03-21T08:02:34.124Z,12.20
2023-03-21T08:03:37.065Z,14.93
2023-03-21T08:04:39.904Z,15.04
2023-03-21T08:05:42.788Z,16.08
2023-03-21T08:06:45.851Z,16.36
2023-03-21T08:07:48.728Z,12.72
2023-03-21T08:08:51.503Z,10.68
2023-03-21T08:09:55.500Z,12.01
2023-03-21T08:10:58.374Z,12.23
2023-03-21T08:12:01.324Z,13.51
2023-03-21T08:13:04.124Z,12.05
2023-03-21T08:14:07.105Z,11.97
2023-03-21T08:15:09.702Z,13.52
2023-03-21T08:16:12.243Z,13.83
2023-03-21T08:17:14.798Z,10.19
2023-03-21T08:18:17.579Z,10.65
2023-03-21T08:19:20.248Z,12.31
2023-03-21T08:20:22.813Z,12.62
2023-03-21T08:21:25.391Z,11.48
2023-03-21T08:22:33.508Z,10.43
2023-03-21T08:23:36.044Z,12.38
2023-03-21T08:24:39.230Z,16.32
2023-03-21T08:25:41.907Z,10.36
2023-03-21T08:26:44.588Z,14.27
2023-03-21T08:27:47.344Z,11.28
2023-03-21T08:28:50.318Z,15.31
2023-03-21T08:29:53.697Z,13.95
2023-03-21T08:30:56.777Z,14.18
2023-03-21T08:31:59.575Z,11.99
2023-03-21T08:33:02.432Z,11.57
2023-03-21T08:34:05.302Z,12.15
2023-03-21T08:35:08.175Z,16.07
2023-03-21T08:36:11.092Z,12.46
2023-03-21T08:37:13.935Z,12.42
2023-03-21T08:38:16.750Z,13.48
2023-03-21T08:39:19.615Z,11.75
2023-03-21T08:40:22.558Z,10.77
2023-03-21T08:41:25.325Z,12.08
2023-03-21T08:42:28.202Z,10.74
2023-03-21T08:43:31.071Z,13.38
2023-03-21T08:44:33.844Z,9.34
2023-03-21T08:45:37.522Z,11.12
2023-03-21T08:46:40.478Z,10.36
2023-03-21T08:47:43.321Z,9.73
2023-03-21T08:48:46.068Z,12.85
2023-03-21T08:49:48.931Z,12.50
2023-03-21T08:50:51.915Z,12.13
2023-03-21T08:51:54.795Z,9.26
2023-03-21T08:52:57.458Z,12.05
2023-03-21T08:54:00.332Z,13.30
2023-03-21T08:55:03.218Z,8.25
2023-03-21T08:56:06.180Z,9.62
2023-03-21T08:57:09.073Z,10.58
2023-03-21T08:58:11.849Z,11.10
2023-03-21T08:59:14.699Z,10.38
2023-03-21T09:00:22.919Z,11.50
2023-03-21T09:01:25.735Z,12.18
2023-03-21T09:02:28.451Z,12.41
2023-03-21T09:03:32.731Z,13.04
2023-03-21T09:04:35.607Z,12.11
2023-03-21T09:05:38.726Z,13.58
2023-03-21T09:06:42.004Z,11.92
2023-03-21T09:07:44.779Z,11.73
2023-03-21T09:08:47.758Z,11.23
2023-03-21T09:09:58.086Z,11.05
2023-03-21T09:10:54.842Z,11.55
2023-03-21T09:11:57.615Z,9.67
2023-03-21T09:13:00.180Z,9.12
2023-03-21T09:14:02.849Z,9.93
2023-03-21T09:15:05.513Z,14.76
2023-03-21T09:16:08.345Z,18.14
2023-03-21T09:17:11.353Z,12.89
2023-03-21T09:18:13.937Z,12.38
2023-03-21T09:19:18.239Z,11.88
2023-03-21T09:20:20.849Z,12.09
2023-03-21T09:21:23.579Z,12.11
2023-03-21T09:22:26.248Z,12.65
2023-03-21T09:23:28.909Z,12.70
2023-03-21T09:24:31.380Z,9.08
2023-03-21T09:25:33.960Z,10.60
2023-03-21T09:26:36.621Z,11.11
2023-03-21T09:27:39.392Z,13.48
2023-03-21T09:28:42.258Z,10.35
2023-03-21T09:29:45.155Z,10.24
2023-03-21T09:30:47.706Z,11.97
2023-03-21T09:31:50.781Z,10.62
2023-03-21T09:32:55.327Z,12.06
2023-03-21T09:33:58.010Z,10.50
2023-03-21T09:35:00.639Z,9.34
2023-03-21T09:36:03.357Z,8.32
2023-03-21T09:37:06.592Z,9.73
2023-03-21T09:38:09.476Z,9.07
2023-03-21T09:39:12.340Z,8.47
2023-03-21T09:40:15.514Z,9.09
2023-03-21T09:41:18.804Z,9.81
2023-03-21T09:42:21.990Z,9.32
2023-03-21T09:43:24.975Z,9.20
2023-03-21T09:44:27.842Z,11.04
2023-03-21T09:45:30.610Z,11.18
2023-03-21T09:46:33.546Z,8.91
2023-03-21T09:47:36.364Z,10.72
2023-03-21T09:48:46.945Z,10.33
2023-03-21T09:49:43.957Z,10.57
2023-03-21T09:50:46.727Z,11.09
2023-03-21T09:51:51.139Z,11.61
2023-03-21T09:52:53.935Z,10.29
2023-03-21T09:53:57.217Z,10.91
2023-03-21T09:55:02.934Z,12.38
2023-03-21T09:56:05.811Z,10.87
2023-03-21T09:57:08.583Z,9.80
2023-03-21T09:58:11.259Z,13.91
2023-03-21T09:59:13.821Z,9.86
2023-03-21T10:00:16.592Z,11.62
2023-03-21T10:01:19.336Z,13.35
2023-03-21T10:02:21.930Z,13.83
2023-03-21T10:03:24.697Z,12.92
2023-03-21T10:04:27.466Z,11.69
2023-03-21T10:05:30.155Z,10.94
2023-03-21T10:06:32.831Z,13.11
2023-03-21T10:07:35.589Z,10.88
2023-03-21T10:08:38.466Z,13.02
2023-03-21T10:09:41.643Z,13.57
2023-03-21T10:10:44.425Z,11.79
2023-03-21T10:11:47.298Z,9.55
2023-03-21T10:12:50.063Z,13.92
2023-03-21T10:13:52.852Z,12.62
2023-03-21T10:14:57.606Z,11.22
2023-03-21T10:16:00.312Z,9.77
2023-03-21T10:17:03.500Z,12.57
2023-03-21T10:18:06.275Z,12.62
2023-03-21T10:19:09.323Z,10.12
2023-03-21T10:20:12.385Z,10.29
2023-03-21T10:21:37.385Z,11.34
2023-03-21T10:22:21.261Z,9.91
2023-03-21T10:23:24.140Z,12.96
2023-03-21T10:24:27.424Z,10.83
2023-03-21T10:25:31.112Z,10.94
2023-03-21T10:26:33.996Z,11.25
2023-03-21T10:27:36.872Z,9.22
2023-03-21T10:28:52.498Z,9.95
2023-03-21T10:29:44.063Z,8.48
2023-03-21T10:30:47.048Z,11.38
2023-03-21T10:31:49.927Z,11.12
2023-03-21T10:32:52.810Z,11.07
2023-03-21T10:33:55.843Z,12.38
2023-03-21T10:34:58.930Z,14.09
2023-03-21T10:36:02.681Z,12.94
2023-03-21T10:37:07.128Z,9.25
2023-03-21T10:38:10.100Z,11.47
2023-03-21T10:39:13.489Z,11.37
2023-03-21T10:40:17.093Z,11.17
2023-03-21T10:41:20.577Z,12.22
2023-03-21T10:42:23.257Z,11.25
2023-03-21T10:43:25.824Z,9.43
2023-03-21T10:44:28.392Z,11.42
2023-03-21T10:45:31.067Z,8.75
2023-03-21T10:46:36.146Z,12.02
2023-03-21T10:47:39.774Z,10.59
2023-03-21T10:48:42.544Z,10.28
2023-03-21T10:50:06.323Z,10.48
2023-03-21T10:50:50.205Z,11.09
2023-03-21T10:51:52.811Z,9.83
2023-03-21T10:52:55.577Z,10.19
2023-03-21T10:53:58.455Z,10.38
2023-03-21T10:55:02.143Z,11.49
2023-03-21T10:56:05.028Z,10.99
2023-03-21T10:57:07.907Z,10.43
2023-03-21T10:58:12.809Z,13.01
2023-03-21T10:59:15.799Z,9.30
2023-03-21T11:00:18.814Z,9.97
2023-03-21T11:01:21.481Z,10.26
2023-03-21T11:02:24.830Z,7.75
2023-03-21T11:03:27.610Z,9.31
2023-03-21T11:04:30.774Z,12.52
2023-03-21T11:05:34.264Z,11.69
2023-03-21T11:06:37.257Z,11.75
2023-03-21T11:07:40.726Z,11.55
2023-03-21T11:08:44.145Z,7.78
2023-03-21T11:09:47.044Z,9.48
2023-03-21T11:10:50.380Z,12.82
2023-03-21T11:11:53.767Z,10.38
2023-03-21T11:12:56.652Z,8.21
2023-03-21T11:13:59.319Z,9.06
2023-03-21T11:15:02.492Z,11.28
2023-03-21T11:16:05.278Z,10.78
2023-03-21T11:17:08.500Z,13.21
2023-03-21T11:18:12.246Z,11.80
2023-03-21T11:19:15.734Z,11.64
2023-03-21T11:20:20.970Z,12.15
2023-03-21T11:21:24.041Z,12.67
2023-03-21T11:22:27.129Z,11.48
2023-03-21T11:23:30.219Z,13.80
2023-03-21T11:24:33.432Z,12.65
2023-03-21T11:25:36.867Z,12.83
2023-03-21T11:26:39.863Z,11.10
2023-03-21T11:27:42.344Z,11.08
2023-03-21T11:28:45.600Z,13.90
2023-03-21T11:29:48.995Z,13.33
2023-03-21T11:30:51.831Z,12.99
2023-03-21T11:31:54.656Z,11.14
2023-03-21T11:32:57.530Z,11.72
2023-03-21T11:34:00.201Z,13.51
2023-03-21T11:35:02.950Z,12.55
2023-03-21T11:36:05.984Z,11.10
2023-03-21T11:37:08.907Z,13.02
2023-03-21T11:38:13.398Z,15.65
2023-03-21T11:39:16.009Z,12.31
2023-03-21T11:40:18.671Z,11.08
2023-03-21T11:41:21.342Z,12.92
2023-03-21T11:42:25.833Z,13.42
2023-03-21T11:43:28.333Z,13.32
2023-03-21T11:44:31.097Z,11.26
2023-03-21T11:45:33.775Z,13.86
2023-03-21T11:46:36.568Z,11.21
2023-03-21T11:47:39.290Z,10.79
2023-03-21T11:48:42.286Z,14.84
2023-03-21T11:49:44.955Z,14.62
2023-03-21T11:50:47.624Z,12.88
2023-03-21T11:51:50.687Z,9.42
2023-03-21T11:52:53.563Z,12.61
2023-03-21T11:53:56.537Z,11.59
2023-03-21T11:54:59.318Z,14.87
2023-03-21T11:56:02.193Z,15.00
2023-03-21T11:57:05.467Z,13.48
2023-03-21T11:58:14.708Z,16.47
2023-03-21T11:59:16.126Z,14.52
2023-03-21T12:01:26.904Z,10.23
2023-03-21T12:02:29.723Z,10.81
2023-03-21T12:03:47.122Z,13.36
2023-03-21T12:04:40.405Z,9.22
2023-03-21T12:05:43.209Z,9.43
2023-03-21T12:06:46.391Z,15.77
2023-03-21T12:07:49.527Z,10.85
2023-03-21T12:08:52.565Z,10.39
2023-03-21T12:09:55.525Z,10.95
2023-03-21T12:10:58.604Z,10.78
2023-03-21T12:12:01.689Z,12.24
2023-03-21T12:13:04.766Z,9.38
2023-03-21T12:14:07.745Z,9.91
2023-03-21T12:15:10.940Z,9.25
2023-03-21T12:16:13.991Z,13.32
2023-03-21T12:17:16.707Z,12.95
2023-03-21T12:18:19.361Z,13.65
2023-03-21T12:19:22.220Z,13.02
2023-03-21T12:20:25.300Z,12.83
2023-03-21T12:21:28.580Z,14.62
2023-03-21T12:22:31.465Z,9.63
2023-03-21T12:23:34.374Z,10.78
2023-03-21T12:24:37.560Z,13.35
2023-03-21T12:25:40.489Z,11.08
2023-03-21T12:26:44.810Z,13.92
2023-03-21T12:27:47.780Z,14.41
2023-03-21T12:28:50.546Z,12.62
2023-03-21T12:29:53.727Z,12.60
2023-03-21T12:30:56.856Z,7.96
2023-03-21T12:31:59.891Z,10.36
2023-03-21T12:33:02.970Z,10.20
2023-03-21T12:34:06.044Z,12.61
2023-03-21T12:35:09.023Z,9.76
2023-03-21T12:36:11.900Z,10.72
2023-03-21T12:37:15.298Z,11.15
2023-03-21T12:38:18.470Z,11.19
2023-03-21T12:39:21.438Z,10.81
2023-03-21T12:40:24.109Z,13.17
2023-03-21T12:41:28.475Z,13.08
2023-03-21T12:42:31.204Z,12.56
2023-03-21T12:43:34.190Z,13.18
2023-03-21T12:44:36.940Z,10.98
2023-03-21T12:45:47.124Z,11.58
2023-03-21T12:46:44.281Z,11.42
2023-03-21T12:47:47.581Z,13.55
2023-03-21T12:48:50.489Z,13.46
2023-03-21T12:49:55.182Z,12.70
2023-03-21T12:50:57.280Z,11.72
2023-03-21T12:52:00.106Z,12.44
2023-03-21T12:53:03.378Z,12.17
2023-03-21T12:54:06.107Z,11.28
2023-03-21T12:55:09.002Z,10.23
2023-03-21T12:56:12.062Z,11.40
2023-03-21T12:57:15.021Z,14.29
2023-03-21T12:58:18.227Z,11.88
2023-03-21T12:59:21.074Z,11.02
2023-03-21T13:00:24.023Z,10.26
2023-03-21T13:01:27.066Z,13.58
2023-03-21T13:02:30.118Z,13.46
2023-03-21T13:03:39.912Z,12.52
2023-03-21T13:04:37.782Z,12.60
2023-03-21T13:05:40.684Z,11.92
2023-03-21T13:06:43.755Z,9.46
2023-03-21T13:07:46.734Z,9.87
2023-03-21T13:08:49.721Z,10.33
2023-03-21T13:09:52.846Z,14.51
2023-03-21T13:10:55.763Z,12.41
2023-03-21T13:11:58.537Z,10.80
2023-03-21T13:13:01.363Z,14.38
2023-03-21T13:14:04.305Z,9.92
2023-03-21T13:15:12.450Z,12.84
2023-03-21T13:16:11.150Z,11.02
2023-03-21T13:17:13.751Z,9.25
2023-03-21T13:18:16.605Z,8.09
2023-03-21T13:19:19.587Z,14.46
2023-03-21T13:20:22.563Z,11.25
2023-03-21T13:21:25.541Z,10.04
2023-03-21T13:22:28.522Z,11.79
2023-03-21T13:23:31.290Z,10.32
2023-03-21T13:24:34.267Z,11.47
2023-03-21T13:25:37.259Z,9.68
2023-03-21T13:26:40.215Z,8.85
2023-03-21T13:27:42.884Z,6.75
2023-03-21T13:28:45.757Z,8.20
2023-03-21T13:29:48.749Z,8.58
2023-03-21T13:30:51.872Z,7.78
2023-03-21T13:31:57.185Z,8.58
2023-03-21T13:32:59.207Z,9.84
2023-03-21T13:34:02.504Z,8.41
2023-03-21T13:35:05.464Z,8.69
2023-03-21T13:36:08.509Z,9.06
2023-03-21T13:37:11.324Z,13.36